createdAt,value
2017-01-31T00:00:30.597Z,60.02
2017-01-31T00:01:11.319Z,60.21
2017-01-31T00:01:51.992Z,60.4
2017-01-31T00:02:32.615Z,59.92
2017-01-31T00:03:13.359Z,60.31
2017-01-31T00:03:54.089Z,60.31
2017-01-31T00:04:34.730Z,60.4
2017-01-31T00:05:15.363Z,60.4
2017-01-31T00:05:56.053Z,60.31
2017-01-31T00:06:36.719Z,60.31
2017-01-31T00:07:17.358Z,60.4
2017-01-31T00:07:58.091Z,60.31
2017-01-31T00:08:38.726Z,60.02
2017-01-31T00:09:19.384Z,59.92
2017-01-31T00:10:00.071Z,59.92
2017-01-31T00:10:40.700Z,60.02
2017-01-31T00:11:21.343Z,60.31
2017-01-31T00:12:02.046Z,60.31
2017-01-31T00:12:42.734Z,60.31
2017-01-31T00:13:23.402Z,60.31
2017-01-31T00:14:04.063Z,60.11
2017-01-31T00:14:44.772Z,60.11
2017-01-31T00:15:25.453Z,59.92
2017-01-31T00:16:06.085Z,60.4
2017-01-31T00:16:46.789Z,60.31
2017-01-31T00:17:27.434Z,59.92
2017-01-31T00:18:08.089Z,60.4
2017-01-31T00:18:48.758Z,60.31
2017-01-31T00:19:29.448Z,60.02
2017-01-31T00:20:10.142Z,60.31
2017-01-31T00:20:50.795Z,60.11
2017-01-31T00:21:31.504Z,60.02
2017-01-31T00:22:12.181Z,60.31
2017-01-31T00:22:52.810Z,60.4
2017-01-31T00:23:33.521Z,60.5
2017-01-31T00:24:14.163Z,60.4
2017-01-31T00:24:54.806Z,60.11
2017-01-31T00:25:35.483Z,60.21
2017-01-31T00:26:16.251Z,60.4
2017-01-31T00:26:56.976Z,59.83
2017-01-31T00:27:37.606Z,59.92
2017-01-31T00:28:18.297Z,60.21
2017-01-31T00:28:58.934Z,60.02
2017-01-31T00:29:39.562Z,60.02
2017-01-31T00:30:20.292Z,60.02
2017-01-31T00:31:00.999Z,60.11
2017-01-31T00:31:41.652Z,60.11
2017-01-31T00:32:22.291Z,60.11
2017-01-31T00:33:02.971Z,60.11
2017-01-31T00:33:43.686Z,60.11
2017-01-31T00:34:24.339Z,60.11
2017-01-31T00:35:04.994Z,60.21
2017-01-31T00:35:45.672Z,60.21
2017-01-31T00:36:26.303Z,60.11
2017-01-31T00:37:06.975Z,60.11
2017-01-31T00:37:47.606Z,60.21
2017-01-31T00:38:28.245Z,59.92
2017-01-31T00:39:08.950Z,60.11
2017-01-31T00:39:49.668Z,60.02
2017-01-31T00:40:30.312Z,59.83
2017-01-31T00:41:10.947Z,59.92
2017-01-31T00:41:51.600Z,59.64
2017-01-31T00:42:32.322Z,59.54
2017-01-31T00:43:12.969Z,60.11
2017-01-31T00:43:53.630Z,60.11
2017-01-31T00:44:34.284Z,60.02
2017-01-31T00:45:14.924Z,59.92
2017-01-31T00:45:55.637Z,59.92
2017-01-31T00:46:36.303Z,59.92
2017-01-31T00:47:16.938Z,60.11
2017-01-31T00:47:58.436Z,59.92
2017-01-31T00:48:39.074Z,59.92
2017-01-31T00:49:19.739Z,59.92
2017-01-31T00:50:00.394Z,59.92
2017-01-31T00:50:41.064Z,59.92
2017-01-31T00:51:21.697Z,59.92
2017-01-31T00:52:02.430Z,59.64
2017-01-31T00:52:43.064Z,60.02
2017-01-31T00:53:23.704Z,60.02
2017-01-31T00:54:04.389Z,59.92
2017-01-31T00:54:45.036Z,59.54
2017-01-31T00:55:25.735Z,59.92
2017-01-31T00:56:06.319Z,59.92
2017-01-31T00:56:46.959Z,60.02
2017-01-31T00:57:27.628Z,60.02
2017-01-31T00:58:08.214Z,59.92
2017-01-31T00:58:48.843Z,59.92
2017-01-31T00:59:29.591Z,59.92
2017-01-31T01:00:10.117Z,59.92
2017-01-31T01:00:50.825Z,60.02
2017-01-31T01:01:31.533Z,59.92
2017-01-31T01:02:12.187Z,59.92
2017-01-31T01:02:52.900Z,60.11
2017-01-31T01:03:33.621Z,59.34
2017-01-31T01:04:14.252Z,59.92
2017-01-31T01:04:54.898Z,59.92
2017-01-31T01:05:35.577Z,59.44
2017-01-31T01:06:16.222Z,59.92
2017-01-31T01:06:56.879Z,59.64
2017-01-31T01:07:37.560Z,60.11
2017-01-31T01:08:18.261Z,59.92
2017-01-31T01:08:58.908Z,59.44
2017-01-31T01:09:39.565Z,59.34
2017-01-31T01:10:20.236Z,59.54
2017-01-31T01:11:00.872Z,59.34
2017-01-31T01:11:41.513Z,59.64
2017-01-31T01:12:22.242Z,59.44
2017-01-31T01:13:02.890Z,59.83
2017-01-31T01:13:43.524Z,59.54
2017-01-31T01:14:24.204Z,60.11
2017-01-31T01:15:04.863Z,59.44
2017-01-31T01:15:45.483Z,59.64
2017-01-31T01:16:26.154Z,59.64
2017-01-31T01:17:06.867Z,60.02
2017-01-31T01:17:47.420Z,59.44
2017-01-31T01:18:28.073Z,59.64
2017-01-31T01:19:08.777Z,59.64
2017-01-31T01:19:49.354Z,59.64
2017-01-31T01:20:30.056Z,59.44
2017-01-31T01:21:10.686Z,59.54
2017-01-31T01:21:51.319Z,59.64
2017-01-31T01:22:31.949Z,59.44
2017-01-31T01:23:12.598Z,59.34
2017-01-31T01:23:53.244Z,59.64
2017-01-31T01:24:33.918Z,59.64
2017-01-31T01:25:14.633Z,58.96
2017-01-31T01:25:55.261Z,59.54
2017-01-31T01:26:35.935Z,59.54
2017-01-31T01:27:16.632Z,59.34
2017-01-31T01:27:57.265Z,59.25
2017-01-31T01:28:37.908Z,59.64
2017-01-31T01:29:18.538Z,59.54
2017-01-31T01:29:59.167Z,59.83
2017-01-31T01:30:39.852Z,59.73
2017-01-31T01:31:20.482Z,59.44
2017-01-31T01:32:01.119Z,59.44
2017-01-31T01:32:41.816Z,59.16
2017-01-31T01:33:22.544Z,59.44
2017-01-31T01:34:03.183Z,59.44
2017-01-31T01:34:43.816Z,59.73
2017-01-31T01:35:24.486Z,59.44
2017-01-31T01:36:05.155Z,59.54
2017-01-31T01:36:45.791Z,59.83
2017-01-31T01:37:26.418Z,59.25
2017-01-31T01:38:07.084Z,59.44
2017-01-31T01:38:47.734Z,59.83
2017-01-31T01:39:28.426Z,59.73
2017-01-31T01:40:09.077Z,59.54
2017-01-31T01:40:49.715Z,59.44
2017-01-31T01:41:30.385Z,59.44
2017-01-31T01:42:11.052Z,59.44
2017-01-31T01:42:51.681Z,59.64
2017-01-31T01:43:33.253Z,59.64
2017-01-31T01:44:14.022Z,59.64
2017-01-31T01:44:54.649Z,59.73
2017-01-31T01:45:35.313Z,59.54
2017-01-31T01:46:16.026Z,59.54
2017-01-31T01:46:56.691Z,59.73
2017-01-31T01:47:37.346Z,59.64
2017-01-31T01:48:18.067Z,59.64
2017-01-31T01:48:58.702Z,59.73
2017-01-31T01:49:39.338Z,59.54
2017-01-31T01:50:20.026Z,59.44
2017-01-31T01:51:00.707Z,59.64
2017-01-31T01:51:41.341Z,59.54
2017-01-31T01:52:22.065Z,59.64
2017-01-31T01:53:02.787Z,59.83
2017-01-31T01:53:43.442Z,59.64
2017-01-31T01:54:24.069Z,59.44
2017-01-31T01:55:04.776Z,59.44
2017-01-31T01:55:45.474Z,59.25
2017-01-31T01:56:26.118Z,59.34
2017-01-31T01:57:06.753Z,59.64
2017-01-31T01:57:47.482Z,59.44
2017-01-31T01:58:28.115Z,59.25
2017-01-31T01:59:08.797Z,59.16
2017-01-31T01:59:49.498Z,59.44
2017-01-31T02:00:30.143Z,59.54
2017-01-31T02:01:10.765Z,59.83
2017-01-31T02:01:51.450Z,59.92
2017-01-31T02:02:32.123Z,59.83
2017-01-31T02:03:12.775Z,59.54
2017-01-31T02:03:53.475Z,59.54
2017-01-31T02:04:34.108Z,59.83
2017-01-31T02:05:14.758Z,59.83
2017-01-31T02:05:55.398Z,59.73
2017-01-31T02:06:36.034Z,59.54
2017-01-31T02:07:16.682Z,59.73
2017-01-31T02:07:57.384Z,59.34
2017-01-31T02:08:38.016Z,59.25
2017-01-31T02:09:18.648Z,59.64
2017-01-31T02:09:59.376Z,59.54
2017-01-31T02:10:40.081Z,59.54
2017-01-31T02:11:20.738Z,59.64
2017-01-31T02:12:01.371Z,59.54
2017-01-31T02:12:42.098Z,59.92
2017-01-31T02:13:22.854Z,59.54
2017-01-31T02:14:03.491Z,59.64
2017-01-31T02:14:44.144Z,59.64
2017-01-31T02:15:24.763Z,59.92
2017-01-31T02:16:05.391Z,59.73
2017-01-31T02:16:46.094Z,59.64
2017-01-31T02:17:26.951Z,59.54
2017-01-31T02:18:07.611Z,59.64
2017-01-31T02:18:48.396Z,59.54
2017-01-31T02:19:29.444Z,60.02
2017-01-31T02:20:10.157Z,59.54
2017-01-31T02:20:50.912Z,59.83
2017-01-31T02:21:31.695Z,59.34
2017-01-31T02:22:12.787Z,59.73
2017-01-31T02:22:53.420Z,59.64
2017-01-31T02:23:34.052Z,59.92
2017-01-31T02:24:14.801Z,59.92
2017-01-31T02:24:55.514Z,60.02
2017-01-31T02:25:36.139Z,59.64
2017-01-31T02:26:16.894Z,59.73
2017-01-31T02:26:57.612Z,60.11
2017-01-31T02:27:38.241Z,59.92
2017-01-31T02:28:18.876Z,60.02
2017-01-31T02:28:59.559Z,59.92
2017-01-31T02:29:40.251Z,60.11
2017-01-31T02:30:20.899Z,60.21
2017-01-31T02:31:01.503Z,59.92
2017-01-31T02:31:42.200Z,60.02
2017-01-31T02:32:22.856Z,59.92
2017-01-31T02:33:03.505Z,59.54
2017-01-31T02:33:44.171Z,60.02
2017-01-31T02:34:24.902Z,59.92
2017-01-31T02:35:05.537Z,60.02
2017-01-31T02:35:46.232Z,60.11
2017-01-31T02:36:26.865Z,60.21
2017-01-31T02:37:07.504Z,60.11
2017-01-31T02:37:48.178Z,59.92
2017-01-31T02:38:28.839Z,60.11
2017-01-31T02:39:09.471Z,60.21
2017-01-31T02:39:50.134Z,59.92
2017-01-31T02:40:30.851Z,60.02
2017-01-31T02:41:11.477Z,60.11
2017-01-31T02:41:52.151Z,60.02
2017-01-31T02:42:32.773Z,59.92
2017-01-31T02:43:13.458Z,60.11
2017-01-31T02:43:54.075Z,60.02
2017-01-31T02:44:34.743Z,60.02
2017-01-31T02:45:15.419Z,60.11
2017-01-31T02:45:56.048Z,60.02
2017-01-31T02:46:36.751Z,60.11
2017-01-31T02:47:17.482Z,60.11
2017-01-31T02:47:58.109Z,60.02
2017-01-31T02:48:38.824Z,60.02
2017-01-31T02:49:19.527Z,60.31
2017-01-31T02:50:00.215Z,59.83
2017-01-31T02:50:40.887Z,59.83
2017-01-31T02:51:21.565Z,60.02
2017-01-31T02:52:02.197Z,60.02
2017-01-31T02:52:42.838Z,60.02
2017-01-31T02:53:23.465Z,60.11
2017-01-31T02:54:04.198Z,60.31
2017-01-31T02:54:44.836Z,60.4
2017-01-31T02:55:25.560Z,60.11
2017-01-31T02:56:06.305Z,60.02
2017-01-31T02:56:47.007Z,60.11
2017-01-31T02:57:27.639Z,60.11
2017-01-31T02:58:08.262Z,60.11
2017-01-31T02:58:48.886Z,60.11
2017-01-31T02:59:29.532Z,60.4
2017-01-31T03:00:10.236Z,60.11
2017-01-31T03:00:50.934Z,60.11
2017-01-31T03:01:31.559Z,60.21
2017-01-31T03:02:12.191Z,60.4
2017-01-31T03:02:52.837Z,60.5
2017-01-31T03:03:33.482Z,60.21
2017-01-31T03:04:14.173Z,60.21
2017-01-31T03:04:54.887Z,60.11
2017-01-31T03:05:35.642Z,60.31
2017-01-31T03:06:16.276Z,60.4
2017-01-31T03:06:56.952Z,60.31
2017-01-31T03:07:37.698Z,60.4
2017-01-31T03:08:18.324Z,59.92
2017-01-31T03:08:58.983Z,60.31
2017-01-31T03:09:39.710Z,60.02
2017-01-31T03:10:20.411Z,60.02
2017-01-31T03:11:01.039Z,60.02
2017-01-31T03:11:41.669Z,60.11
2017-01-31T03:12:22.323Z,60.02
2017-01-31T03:13:02.952Z,60.11
2017-01-31T03:13:43.702Z,60.02
2017-01-31T03:14:24.415Z,60.11
2017-01-31T03:15:05.038Z,59.92
2017-01-31T03:15:45.759Z,59.92
2017-01-31T03:16:26.381Z,60.02
2017-01-31T03:17:07.037Z,60.11
2017-01-31T03:17:47.653Z,60.02
2017-01-31T03:18:28.277Z,60.11
2017-01-31T03:19:08.909Z,60.11
2017-01-31T03:19:49.578Z,60.02
2017-01-31T03:20:30.274Z,60.02
2017-01-31T03:21:10.897Z,60.02
2017-01-31T03:21:51.527Z,60.11
2017-01-31T03:22:32.163Z,60.21
2017-01-31T03:23:12.792Z,59.83
2017-01-31T03:23:53.398Z,59.73
2017-01-31T03:24:34.144Z,60.02
2017-01-31T03:25:14.788Z,60.11
2017-01-31T03:25:55.428Z,59.92
2017-01-31T03:26:36.158Z,59.92
2017-01-31T03:27:16.832Z,60.21
2017-01-31T03:27:57.465Z,59.83
2017-01-31T03:28:38.185Z,60.21
2017-01-31T03:29:18.807Z,59.92
2017-01-31T03:29:59.432Z,60.21
2017-01-31T03:30:40.129Z,60.21
2017-01-31T03:31:20.860Z,60.31
2017-01-31T03:32:01.509Z,60.02
2017-01-31T03:32:42.163Z,60.21
2017-01-31T03:33:22.893Z,60.21
2017-01-31T03:34:03.556Z,60.21
2017-01-31T03:34:44.187Z,59.83
2017-01-31T03:35:24.899Z,59.73
2017-01-31T03:36:05.523Z,60.11
2017-01-31T03:36:46.150Z,59.92
2017-01-31T03:37:26.778Z,60.11
2017-01-31T03:38:07.451Z,59.73
2017-01-31T03:38:48.081Z,59.92
2017-01-31T03:39:28.791Z,60.21
2017-01-31T03:40:09.516Z,60.21
2017-01-31T03:40:50.236Z,59.83
2017-01-31T03:41:30.885Z,60.21
2017-01-31T03:42:11.570Z,60.21
2017-01-31T03:42:52.281Z,60.11
2017-01-31T03:43:32.912Z,60.31
2017-01-31T03:44:13.603Z,60.11
2017-01-31T03:44:54.312Z,60.02
2017-01-31T03:45:34.967Z,59.92
2017-01-31T03:46:15.630Z,60.02
2017-01-31T03:46:56.386Z,59.92
2017-01-31T03:47:37.038Z,59.92
2017-01-31T03:48:17.674Z,60.11
2017-01-31T03:48:58.350Z,59.83
2017-01-31T03:49:39.025Z,59.92
2017-01-31T03:50:19.653Z,60.11
2017-01-31T03:51:00.331Z,60.02
2017-01-31T03:51:41.034Z,59.92
2017-01-31T03:52:21.697Z,59.92
2017-01-31T03:53:02.340Z,60.11
2017-01-31T03:53:42.993Z,59.73
2017-01-31T03:54:23.620Z,60.02
2017-01-31T03:55:04.253Z,60.21
2017-01-31T03:55:44.891Z,60.21
2017-01-31T03:56:25.606Z,60.21
2017-01-31T03:57:06.269Z,60.11
2017-01-31T03:57:46.949Z,60.11
2017-01-31T03:58:27.678Z,59.92
2017-01-31T03:59:08.318Z,60.02
2017-01-31T03:59:48.980Z,60.02
2017-01-31T04:00:29.686Z,60.21
2017-01-31T04:01:10.351Z,59.73
2017-01-31T04:01:50.996Z,60.21
2017-01-31T04:02:31.720Z,59.92
2017-01-31T04:03:12.390Z,60.11
2017-01-31T04:03:53.019Z,59.92
2017-01-31T04:04:33.673Z,59.92
2017-01-31T04:05:14.323Z,59.92
2017-01-31T04:05:54.946Z,60.11
2017-01-31T04:06:35.641Z,59.92
2017-01-31T04:07:16.288Z,59.92
2017-01-31T04:07:56.925Z,59.92
2017-01-31T04:08:37.623Z,59.92
2017-01-31T04:09:18.377Z,60.11
2017-01-31T04:09:59.057Z,59.83
2017-01-31T04:10:39.698Z,59.83
2017-01-31T04:11:20.336Z,60.11
2017-01-31T04:12:00.960Z,59.92
2017-01-31T04:12:41.585Z,59.83
2017-01-31T04:13:22.304Z,59.92
2017-01-31T04:14:02.982Z,60.21
2017-01-31T04:14:43.602Z,60.11
2017-01-31T04:15:24.319Z,60.11
2017-01-31T04:16:05.006Z,59.92
2017-01-31T04:16:45.634Z,59.83
2017-01-31T04:17:26.321Z,60.21
2017-01-31T04:18:07.021Z,60.21
2017-01-31T04:18:47.671Z,59.73
2017-01-31T04:19:28.297Z,59.92
2017-01-31T04:20:08.965Z,60.11
2017-01-31T04:20:49.634Z,59.92
2017-01-31T04:21:30.259Z,59.92
2017-01-31T04:22:10.894Z,60.11
2017-01-31T04:22:51.570Z,59.83
2017-01-31T04:23:32.197Z,59.83
2017-01-31T04:24:12.900Z,60.21
2017-01-31T04:24:53.565Z,60.21
2017-01-31T04:25:34.192Z,60.11
2017-01-31T04:26:14.871Z,59.92
2017-01-31T04:26:55.529Z,59.92
2017-01-31T04:27:36.155Z,59.92
2017-01-31T04:28:16.890Z,59.92
2017-01-31T04:28:57.522Z,59.83
2017-01-31T04:29:38.195Z,60.21
2017-01-31T04:30:18.796Z,60.02
2017-01-31T04:30:59.428Z,60.11
2017-01-31T04:31:40.047Z,60.02
2017-01-31T04:32:20.682Z,60.02
2017-01-31T04:33:01.325Z,60.21
2017-01-31T04:33:41.950Z,60.02
2017-01-31T04:34:22.591Z,59.92
2017-01-31T04:35:03.232Z,60.11
2017-01-31T04:35:43.866Z,59.92
2017-01-31T04:36:24.504Z,59.92
2017-01-31T04:37:05.128Z,59.83
2017-01-31T04:37:45.769Z,59.83
2017-01-31T04:38:26.422Z,59.92
2017-01-31T04:39:07.049Z,60.02
2017-01-31T04:39:47.680Z,60.02
2017-01-31T04:40:28.420Z,60.21
2017-01-31T04:41:09.090Z,60.11
2017-01-31T04:41:49.715Z,60.11
2017-01-31T04:42:30.353Z,60.11
2017-01-31T04:43:11.012Z,59.83
2017-01-31T04:43:51.644Z,60.02
2017-01-31T04:44:32.274Z,60.21
2017-01-31T04:45:12.935Z,60.21
2017-01-31T04:45:53.619Z,60.11
2017-01-31T04:46:34.269Z,60.02
2017-01-31T04:47:14.958Z,59.73
2017-01-31T04:47:55.605Z,60.11
2017-01-31T04:48:36.235Z,59.83
2017-01-31T04:49:16.890Z,60.21
2017-01-31T04:49:57.641Z,59.92
2017-01-31T04:50:38.272Z,60.02
2017-01-31T04:51:18.947Z,59.92
2017-01-31T04:51:59.590Z,59.92
2017-01-31T04:52:40.251Z,60.11
2017-01-31T04:53:20.853Z,60.02
2017-01-31T04:54:01.561Z,59.92
2017-01-31T04:54:42.237Z,60.02
2017-01-31T04:55:22.853Z,59.73
2017-01-31T04:56:03.475Z,59.73
2017-01-31T04:56:44.157Z,59.92
2017-01-31T04:57:24.807Z,59.83
2017-01-31T04:58:05.520Z,59.92
2017-01-31T04:58:46.251Z,59.83
2017-01-31T04:59:26.874Z,60.02
2017-01-31T05:00:07.572Z,60.21
2017-01-31T05:00:48.319Z,60.11
2017-01-31T05:01:29.021Z,60.4
2017-01-31T05:02:09.666Z,60.31
2017-01-31T05:02:50.346Z,60.4
2017-01-31T05:03:30.987Z,60.4
2017-01-31T05:04:11.611Z,60.31
2017-01-31T05:04:52.273Z,60.11
2017-01-31T05:05:32.977Z,60.11
2017-01-31T05:06:13.607Z,60.4
2017-01-31T05:06:54.282Z,60.4
2017-01-31T05:07:34.910Z,60.5
2017-01-31T05:08:15.550Z,60.11
2017-01-31T05:08:56.840Z,60.11
2017-01-31T05:09:37.469Z,60.5
2017-01-31T05:10:18.094Z,60.5
2017-01-31T05:10:58.801Z,60.5
2017-01-31T05:11:39.430Z,60.5
2017-01-31T05:12:20.057Z,60.5
2017-01-31T05:13:00.733Z,60.5
2017-01-31T05:13:41.351Z,60.5
2017-01-31T05:14:21.993Z,60.5
2017-01-31T05:15:02.642Z,60.4
2017-01-31T05:15:43.270Z,60.5
2017-01-31T05:16:23.899Z,60.11
2017-01-31T05:17:04.520Z,60.31
2017-01-31T05:17:45.158Z,60.5
2017-01-31T05:18:25.822Z,60.6
2017-01-31T05:19:06.449Z,60.5
2017-01-31T05:19:47.090Z,60.5
2017-01-31T05:20:27.747Z,60.6
2017-01-31T05:21:08.399Z,60.4
2017-01-31T05:21:49.044Z,60.5
2017-01-31T05:22:29.712Z,60.31
2017-01-31T05:23:10.420Z,60.5
2017-01-31T05:23:51.134Z,60.5
2017-01-31T05:24:31.777Z,60.4
2017-01-31T05:25:12.460Z,60.5
2017-01-31T05:25:53.184Z,60.5
2017-01-31T05:26:33.821Z,60.11
2017-01-31T05:27:14.477Z,60.6
2017-01-31T05:27:55.197Z,60.98
2017-01-31T05:28:35.826Z,60.88
2017-01-31T05:29:16.460Z,60.4
2017-01-31T05:29:57.122Z,60.31
2017-01-31T05:30:37.757Z,60.98
2017-01-31T05:31:18.387Z,60.4
2017-01-31T05:31:59.089Z,60.88
2017-01-31T05:32:39.724Z,60.98
2017-01-31T05:33:20.346Z,60.78
2017-01-31T05:34:01.010Z,60.78
2017-01-31T05:34:41.646Z,61.08
2017-01-31T05:35:22.279Z,60.88
2017-01-31T05:36:02.914Z,60.88
2017-01-31T05:36:43.608Z,60.4
2017-01-31T05:37:24.244Z,60.6
2017-01-31T05:38:04.933Z,60.31
2017-01-31T05:38:45.603Z,60.31
2017-01-31T05:39:26.231Z,60.21
2017-01-31T05:40:06.911Z,60.4
2017-01-31T05:40:47.530Z,60.69
2017-01-31T05:41:28.175Z,60.21
2017-01-31T05:42:08.888Z,60.98
2017-01-31T05:42:49.519Z,60.78
2017-01-31T05:43:30.150Z,60.78
2017-01-31T05:44:10.845Z,60.78
2017-01-31T05:44:51.562Z,60.88
2017-01-31T05:45:32.234Z,60.69
2017-01-31T05:46:12.860Z,60.78
2017-01-31T05:46:53.593Z,60.78
2017-01-31T05:47:34.351Z,60.69
2017-01-31T05:48:14.974Z,60.88
2017-01-31T05:48:55.638Z,60.78
2017-01-31T05:49:36.377Z,60.98
2017-01-31T05:50:17.015Z,60.78
2017-01-31T05:50:57.670Z,60.69
2017-01-31T05:51:38.335Z,60.6
2017-01-31T05:52:18.994Z,60.78
2017-01-31T05:52:59.623Z,60.69
2017-01-31T05:53:40.315Z,60.78
2017-01-31T05:54:20.933Z,60.69
2017-01-31T05:55:01.560Z,60.69
2017-01-31T05:55:42.275Z,60.6
2017-01-31T05:56:22.950Z,60.6
2017-01-31T05:57:03.580Z,60.69
2017-01-31T05:57:44.274Z,60.6
2017-01-31T05:58:24.956Z,60.98
2017-01-31T05:59:05.571Z,60.5
2017-01-31T05:59:46.238Z,60.78
2017-01-31T06:00:26.921Z,60.88
2017-01-31T06:01:07.601Z,61.08
2017-01-31T06:01:48.240Z,60.98
2017-01-31T06:02:28.925Z,60.88
2017-01-31T06:03:09.575Z,61.08
2017-01-31T06:03:50.203Z,60.88
2017-01-31T06:04:30.925Z,61.08
2017-01-31T06:05:11.558Z,61.08
2017-01-31T06:05:52.187Z,60.98
2017-01-31T06:06:32.853Z,60.78
2017-01-31T06:07:13.498Z,61.27
2017-01-31T06:07:54.128Z,61.08
2017-01-31T06:08:34.842Z,60.88
2017-01-31T06:09:15.481Z,60.88
2017-01-31T06:09:56.119Z,60.5
2017-01-31T06:10:36.823Z,60.6
2017-01-31T06:11:17.450Z,60.98
2017-01-31T06:11:58.083Z,60.78
2017-01-31T06:12:38.764Z,60.88
2017-01-31T06:13:19.394Z,60.98
2017-01-31T06:14:00.041Z,60.88
2017-01-31T06:14:40.674Z,61.08
2017-01-31T06:15:21.304Z,61.08
2017-01-31T06:16:01.945Z,61.08
2017-01-31T06:16:42.564Z,60.6
2017-01-31T06:17:23.195Z,60.98
2017-01-31T06:18:03.858Z,61.08
2017-01-31T06:18:44.473Z,60.98
2017-01-31T06:19:25.125Z,60.69
2017-01-31T06:20:05.853Z,60.88
2017-01-31T06:20:46.393Z,60.69
2017-01-31T06:21:27.115Z,60.98
2017-01-31T06:22:07.804Z,61.08
2017-01-31T06:22:48.449Z,60.69
2017-01-31T06:23:29.085Z,60.78
2017-01-31T06:24:09.723Z,60.88
2017-01-31T06:24:50.357Z,61.08
2017-01-31T06:25:31.009Z,60.98
2017-01-31T06:26:11.646Z,60.69
2017-01-31T06:26:52.272Z,60.98
2017-01-31T06:27:32.949Z,60.88
2017-01-31T06:28:13.614Z,60.98
2017-01-31T06:28:54.234Z,60.98
2017-01-31T06:29:34.927Z,60.78
2017-01-31T06:30:15.576Z,60.88
2017-01-31T06:30:56.210Z,60.98
2017-01-31T06:31:36.899Z,60.6
2017-01-31T06:32:17.526Z,60.78
2017-01-31T06:32:58.163Z,60.88
2017-01-31T06:33:38.816Z,60.98
2017-01-31T06:34:19.445Z,60.98
2017-01-31T06:35:00.075Z,60.78
2017-01-31T06:35:40.751Z,60.88
2017-01-31T06:36:21.385Z,60.88
2017-01-31T06:37:02.029Z,60.88
2017-01-31T06:37:42.720Z,60.98
2017-01-31T06:38:23.435Z,60.69
2017-01-31T06:39:04.143Z,60.98
2017-01-31T06:39:44.798Z,60.78
2017-01-31T06:40:25.479Z,60.88
2017-01-31T06:41:06.125Z,60.69
2017-01-31T06:41:46.774Z,60.88
2017-01-31T06:42:27.480Z,60.98
2017-01-31T06:43:08.113Z,60.78
2017-01-31T06:43:48.765Z,60.78
2017-01-31T06:44:29.437Z,60.6
2017-01-31T06:45:10.074Z,60.6
2017-01-31T06:45:50.700Z,60.69
2017-01-31T06:46:31.385Z,60.88
2017-01-31T06:47:12.005Z,60.98
2017-01-31T06:47:52.691Z,60.98
2017-01-31T06:48:33.294Z,60.98
2017-01-31T06:49:14.034Z,60.88
2017-01-31T06:49:54.759Z,60.98
2017-01-31T06:50:35.396Z,60.98
2017-01-31T06:51:16.029Z,60.98
2017-01-31T06:51:56.674Z,60.88
2017-01-31T06:52:37.318Z,60.6
2017-01-31T06:53:17.978Z,60.88
2017-01-31T06:53:58.641Z,60.6
2017-01-31T06:54:39.291Z,60.88
2017-01-31T06:55:19.944Z,60.78
2017-01-31T06:56:00.604Z,60.88
2017-01-31T06:56:41.238Z,60.69
2017-01-31T06:57:21.950Z,60.98
2017-01-31T06:58:02.592Z,60.6
2017-01-31T06:58:43.220Z,60.78
2017-01-31T06:59:23.872Z,61.08
2017-01-31T07:00:04.506Z,60.98
2017-01-31T07:00:45.136Z,60.69
2017-01-31T07:01:25.765Z,60.88
2017-01-31T07:02:06.399Z,60.88
2017-01-31T07:02:47.019Z,60.98
2017-01-31T07:03:27.643Z,61.08
2017-01-31T07:04:08.323Z,60.78
2017-01-31T07:04:48.948Z,60.88
2017-01-31T07:05:29.632Z,60.78
2017-01-31T07:06:10.260Z,61.36
2017-01-31T07:06:50.898Z,60.98
2017-01-31T07:07:31.529Z,60.88
2017-01-31T07:08:12.207Z,61.08
2017-01-31T07:08:52.897Z,60.88
2017-01-31T07:09:33.480Z,60.98
2017-01-31T07:10:14.162Z,60.88
2017-01-31T07:10:54.822Z,60.78
2017-01-31T07:11:35.457Z,60.6
2017-01-31T07:12:16.151Z,60.69
2017-01-31T07:12:56.781Z,60.98
2017-01-31T07:13:37.414Z,60.78
2017-01-31T07:14:18.084Z,60.88
2017-01-31T07:14:58.747Z,60.88
2017-01-31T07:15:39.373Z,60.6
2017-01-31T07:16:20.087Z,60.88
2017-01-31T07:17:00.678Z,60.6
2017-01-31T07:17:41.313Z,60.78
2017-01-31T07:18:21.995Z,60.69
2017-01-31T07:19:02.626Z,60.98
2017-01-31T07:19:43.259Z,60.78
2017-01-31T07:20:23.896Z,60.98
2017-01-31T07:21:04.531Z,60.78
2017-01-31T07:21:45.158Z,60.88
2017-01-31T07:22:25.836Z,60.98
2017-01-31T07:23:06.469Z,60.88
2017-01-31T07:23:47.108Z,60.98
2017-01-31T07:24:27.808Z,60.69
2017-01-31T07:25:08.436Z,61.46
2017-01-31T07:25:49.078Z,60.78
2017-01-31T07:26:30.431Z,61.17
2017-01-31T07:27:11.059Z,61.27
2017-01-31T07:27:51.689Z,61.27
2017-01-31T07:28:32.325Z,60.98
2017-01-31T07:29:12.947Z,60.88
2017-01-31T07:29:53.589Z,60.78
2017-01-31T07:30:34.218Z,60.69
2017-01-31T07:31:14.900Z,60.78
2017-01-31T07:31:55.533Z,60.69
2017-01-31T07:32:36.159Z,60.98
2017-01-31T07:33:16.786Z,60.88
2017-01-31T07:33:57.410Z,61.08
2017-01-31T07:34:38.049Z,60.98
2017-01-31T07:35:18.676Z,60.98
2017-01-31T07:35:59.301Z,60.88
2017-01-31T07:36:39.976Z,60.78
2017-01-31T07:37:20.603Z,60.88
2017-01-31T07:38:01.287Z,60.98
2017-01-31T07:38:41.922Z,60.88
2017-01-31T07:39:22.551Z,60.98
2017-01-31T07:40:03.242Z,60.78
2017-01-31T07:40:43.877Z,61.08
2017-01-31T07:41:24.511Z,60.69
2017-01-31T07:42:05.161Z,60.88
2017-01-31T07:42:45.882Z,60.98
2017-01-31T07:43:26.531Z,60.69
2017-01-31T07:44:07.185Z,61.08
2017-01-31T07:44:47.914Z,60.88
2017-01-31T07:45:28.635Z,60.88
2017-01-31T07:46:09.260Z,60.98
2017-01-31T07:46:49.944Z,60.78
2017-01-31T07:47:30.573Z,60.88
2017-01-31T07:48:11.203Z,61.08
2017-01-31T07:48:51.900Z,60.88
2017-01-31T07:49:32.598Z,60.6
2017-01-31T07:50:13.315Z,60.88
2017-01-31T07:50:54.010Z,60.78
2017-01-31T07:51:34.665Z,60.6
2017-01-31T07:52:15.311Z,60.5
2017-01-31T07:52:55.937Z,60.98
2017-01-31T07:53:36.623Z,60.6
2017-01-31T07:54:17.284Z,60.5
2017-01-31T07:54:57.919Z,60.5
2017-01-31T07:55:38.585Z,60.6
2017-01-31T07:56:19.230Z,60.6
2017-01-31T07:56:59.862Z,60.5
2017-01-31T07:57:40.488Z,60.5
2017-01-31T07:58:21.113Z,60.5
2017-01-31T07:59:01.739Z,60.6
2017-01-31T07:59:42.366Z,60.69
2017-01-31T08:00:23.098Z,60.5
2017-01-31T08:01:03.727Z,60.5
2017-01-31T08:01:44.409Z,60.78
2017-01-31T08:02:25.026Z,60.98
2017-01-31T08:03:05.656Z,61.08
2017-01-31T08:03:46.308Z,60.88
2017-01-31T08:04:27.043Z,60.5
2017-01-31T08:05:07.711Z,60.69
2017-01-31T08:05:48.350Z,61.17
2017-01-31T08:06:29.067Z,60.88
2017-01-31T08:07:09.699Z,60.88
2017-01-31T08:07:50.338Z,60.69
2017-01-31T08:08:30.955Z,60.6
2017-01-31T08:09:11.594Z,60.5
2017-01-31T08:09:52.228Z,60.6
2017-01-31T08:10:32.858Z,60.88
2017-01-31T08:11:13.499Z,60.88
2017-01-31T08:11:54.137Z,60.5
2017-01-31T08:12:34.779Z,60.5
2017-01-31T08:13:15.422Z,60.6
2017-01-31T08:13:56.054Z,60.6
2017-01-31T08:14:36.695Z,60.6
2017-01-31T08:15:17.332Z,60.78
2017-01-31T08:15:57.988Z,60.78
2017-01-31T08:16:38.656Z,60.5
2017-01-31T08:17:19.391Z,60.69
2017-01-31T08:18:00.023Z,60.69
2017-01-31T08:18:40.650Z,60.69
2017-01-31T08:19:21.295Z,60.6
2017-01-31T08:20:01.946Z,60.88
2017-01-31T08:20:42.595Z,60.31
2017-01-31T08:21:23.239Z,60.69
2017-01-31T08:22:03.880Z,60.69
2017-01-31T08:22:44.534Z,60.5
2017-01-31T08:23:25.181Z,60.6
2017-01-31T08:24:05.818Z,60.5
2017-01-31T08:24:46.460Z,60.69
2017-01-31T08:25:27.112Z,60.6
2017-01-31T08:26:07.739Z,60.5
2017-01-31T08:26:48.387Z,60.88
2017-01-31T08:27:29.031Z,60.69
2017-01-31T08:28:09.680Z,60.6
2017-01-31T08:28:50.360Z,60.5
2017-01-31T08:29:30.997Z,60.88
2017-01-31T08:30:11.637Z,60.5
2017-01-31T08:30:52.249Z,60.5
2017-01-31T08:31:32.954Z,60.6
2017-01-31T08:32:13.602Z,60.69
2017-01-31T08:32:54.246Z,60.78
2017-01-31T08:33:34.920Z,60.6
2017-01-31T08:34:15.602Z,60.98
2017-01-31T08:34:56.232Z,60.78
2017-01-31T08:35:36.865Z,60.5
2017-01-31T08:36:17.514Z,60.69
2017-01-31T08:36:58.158Z,60.6
2017-01-31T08:37:38.841Z,60.78
2017-01-31T08:38:19.513Z,60.78
2017-01-31T08:39:00.140Z,60.69
2017-01-31T08:39:40.846Z,60.69
2017-01-31T08:40:21.530Z,60.88
2017-01-31T08:41:02.155Z,60.78
2017-01-31T08:41:42.819Z,60.88
2017-01-31T08:42:23.453Z,60.88
2017-01-31T08:43:04.094Z,60.98
2017-01-31T08:43:44.729Z,60.78
2017-01-31T08:44:25.361Z,60.78
2017-01-31T08:45:05.985Z,60.78
2017-01-31T08:45:46.614Z,60.88
2017-01-31T08:46:27.255Z,60.98